createdAt,value
2022-08-24T00:02:26.815Z,44.50
2022-08-24T00:05:30.233Z,48.50
2022-08-24T00:08:33.676Z,45.00
2022-08-24T00:11:38.347Z,43.40
2022-08-24T00:14:41.869Z,42.50
2022-08-24T00:17:45.293Z,45.80
2022-08-24T00:20:49.168Z,42.50
2022-08-24T00:23:52.460Z,44.75
2022-08-24T00:26:57.584Z,48.50
2022-08-24T00:30:00.807Z,47.75
2022-08-24T00:33:05.193Z,45.00
2022-08-24T00:36:09.353Z,45.00
2022-08-24T00:39:14.165Z,44.75
2022-08-24T00:42:19.247Z,40.00
2022-08-24T00:45:24.673Z,46.75
2022-08-24T00:48:33.424Z,41.00
2022-08-24T00:51:41.936Z,38.00
2022-08-24T00:54:50.733Z,42.00
2022-08-24T00:58:00.942Z,40.40
2022-08-24T01:01:07.452Z,33.75
2022-08-24T01:04:18.151Z,37.40
2022-08-24T01:07:23.958Z,37.00
2022-08-24T01:10:34.845Z,39.00
2022-08-24T01:13:41.040Z,37.50
2022-08-24T01:17:02.318Z,37.00
2022-08-24T01:20:07.360Z,35.00
2022-08-24T01:23:19.862Z,37.60
2022-08-24T01:26:29.946Z,40.00
2022-08-24T01:29:33.360Z,37.00
2022-08-24T01:32:37.119Z,40.20
2022-08-24T01:35:40.856Z,40.00
2022-08-24T01:38:45.409Z,37.60
2022-08-24T01:41:51.653Z,38.00
2022-08-24T01:44:54.938Z,38.20
2022-08-24T01:47:58.774Z,37.20
2022-08-24T01:51:04.668Z,44.60
2022-08-24T01:54:08.830Z,39.00
2022-08-24T01:57:16.109Z,44.00
2022-08-24T02:00:20.488Z,40.00
2022-08-24T02:03:28.678Z,42.40
2022-08-24T02:06:36.190Z,49.60
2022-08-24T02:09:43.125Z,40.20
2022-08-24T02:12:58.142Z,42.60
2022-08-24T02:16:02.436Z,44.00
2022-08-24T02:19:08.796Z,40.80
2022-08-24T02:22:12.326Z,46.50
2022-08-24T02:25:16.860Z,41.00
2022-08-24T02:28:21.938Z,44.20
2022-08-24T02:31:25.658Z,45.00
2022-08-24T02:34:29.190Z,45.00
2022-08-24T02:37:32.674Z,46.00
2022-08-24T02:40:37.505Z,47.25
2022-08-24T02:43:42.865Z,49.00
2022-08-24T02:46:46.374Z,46.60
2022-08-24T02:49:49.794Z,44.00
2022-08-24T02:52:54.603Z,44.80
2022-08-24T02:56:00.242Z,45.60
2022-08-24T02:59:05.323Z,40.00
2022-08-24T03:02:08.979Z,50.20
2022-08-24T03:05:13.277Z,42.20
2022-08-24T03:08:16.905Z,45.00
2022-08-24T03:11:22.812Z,40.20
2022-08-24T03:14:29.330Z,47.20
2022-08-24T03:17:33.805Z,45.00
2022-08-24T03:20:37.349Z,44.00
2022-08-24T03:23:40.667Z,46.75
2022-08-24T03:26:44.565Z,45.00
2022-08-24T03:29:50.705Z,52.00
2022-08-24T03:32:54.903Z,47.50
2022-08-24T03:35:58.502Z,43.00
2022-08-24T03:39:02.860Z,49.80
2022-08-24T03:42:07.044Z,48.00
2022-08-24T03:45:12.459Z,50.00
2022-08-24T03:48:16.836Z,51.00
2022-08-24T03:51:24.350Z,53.00
2022-08-24T03:54:27.608Z,56.60
2022-08-24T03:57:31.938Z,56.00
2022-08-24T04:00:37.188Z,50.00
2022-08-24T04:03:44.554Z,52.40
2022-08-24T04:06:49.305Z,57.00
2022-08-24T04:09:52.986Z,56.50
2022-08-24T04:12:56.459Z,57.00
2022-08-24T04:16:05.985Z,53.40
2022-08-24T04:19:09.664Z,56.60
2022-08-24T04:22:13.291Z,54.60
2022-08-24T04:25:16.700Z,56.50
2022-08-24T04:28:22.908Z,55.00
2022-08-24T04:31:28.894Z,51.80
2022-08-24T04:34:32.465Z,55.20
2022-08-24T04:37:35.755Z,50.00
2022-08-24T04:40:40.534Z,55.40
2022-08-24T04:43:45.767Z,53.00
2022-08-24T04:46:51.549Z,60.00
2022-08-24T04:49:56.300Z,58.00
2022-08-24T04:52:59.719Z,59.40
2022-08-24T04:56:03.639Z,58.00
2022-08-24T04:59:09.274Z,57.20
2022-08-24T05:02:14.459Z,56.75
2022-08-24T05:05:20.094Z,51.40
2022-08-24T05:08:23.747Z,53.00
2022-08-24T05:11:27.657Z,52.00
2022-08-24T05:14:31.634Z,49.00
2022-08-24T05:17:36.668Z,45.00
2022-08-24T05:20:42.475Z,46.00
2022-08-24T05:23:46.439Z,51.50
2022-08-24T05:26:53.264Z,45.40
2022-08-24T05:29:57.897Z,44.40
2022-08-24T05:33:02.816Z,46.00
2022-08-24T05:36:07.169Z,49.50
2022-08-24T05:39:12.905Z,44.40
2022-08-24T05:42:18.093Z,45.00
2022-08-24T05:45:24.687Z,51.75
2022-08-24T05:48:29.979Z,48.60
2022-08-24T05:51:33.903Z,48.50
2022-08-24T05:54:43.055Z,45.00
2022-08-24T05:57:47.729Z,50.40
2022-08-24T06:01:00.113Z,42.40
2022-08-24T06:04:06.839Z,37.50
2022-08-24T06:07:11.561Z,36.00
2022-08-24T06:10:35.938Z,41.25
2022-08-24T06:13:41.233Z,39.60
2022-08-24T06:16:47.527Z,36.20
2022-08-24T06:19:52.441Z,38.80
2022-08-24T06:22:55.760Z,41.00
2022-08-24T06:26:22.957Z,38.00
2022-08-24T06:29:26.679Z,36.00
2022-08-24T06:32:34.215Z,36.80
2022-08-24T06:35:42.437Z,35.00
2022-08-24T06:38:48.186Z,32.25
2022-08-24T06:41:53.769Z,40.75
2022-08-24T06:45:06.809Z,33.40
2022-08-24T06:48:10.141Z,37.60
2022-08-24T06:51:17.620Z,38.20
2022-08-24T06:54:22.000Z,43.00
2022-08-24T06:57:25.936Z,38.20
2022-08-24T07:00:30.776Z,39.25
2022-08-24T07:03:34.221Z,38.75
2022-08-24T07:06:52.516Z,32.50
2022-08-24T07:09:56.061Z,40.00
2022-08-24T07:12:59.715Z,31.00
2022-08-24T07:16:03.860Z,31.40
2022-08-24T07:19:09.670Z,39.60
2022-08-24T07:22:15.200Z,36.00
2022-08-24T07:25:19.793Z,39.00
2022-08-24T07:28:27.751Z,33.60
2022-08-24T07:31:38.249Z,28.20
2022-08-24T07:34:50.750Z,26.80
2022-08-24T07:37:56.496Z,30.40
2022-08-24T07:44:24.712Z,27.50
2022-08-24T07:47:38.606Z,26.20
2022-08-24T07:50:52.991Z,27.00
2022-08-24T07:53:57.683Z,28.75
2022-08-24T07:57:07.145Z,31.00
2022-08-24T08:00:14.201Z,25.80
2022-08-24T08:03:26.744Z,34.60
2022-08-24T08:06:30.425Z,36.40
2022-08-24T08:09:39.450Z,30.75
2022-08-24T08:12:44.928Z,28.20
2022-08-24T08:15:48.323Z,28.00
2022-08-24T08:19:00.903Z,29.80
2022-08-24T08:22:30.236Z,21.80
2022-08-24T08:26:15.416Z,32.50
2022-08-24T08:29:43.579Z,28.00
2022-08-24T08:32:46.890Z,27.40
2022-08-24T08:35:52.394Z,21.20
2022-08-24T08:38:56.308Z,20.00
2022-08-24T08:42:39.698Z,23.75
2022-08-24T08:46:07.096Z,22.20
2022-08-24T08:50:03.994Z,20.20
2022-08-24T08:53:32.372Z,29.60
2022-08-24T08:56:47.470Z,26.00
2022-08-24T09:00:07.307Z,24.40
2022-08-24T09:03:47.736Z,25.00
2022-08-24T09:07:34.214Z,19.00
2022-08-24T09:10:57.617Z,22.60
2022-08-24T09:14:19.940Z,20.00
2022-08-24T09:17:52.650Z,21.00
2022-08-24T09:21:11.635Z,23.00
2022-08-24T09:24:30.091Z,25.40
2022-08-24T09:27:55.085Z,20.00
2022-08-24T09:31:25.851Z,23.00
2022-08-24T09:34:37.018Z,25.00
2022-08-24T09:37:59.564Z,22.00
2022-08-24T09:41:28.474Z,21.50
2022-08-24T09:45:10.802Z,22.00
2022-08-24T09:48:33.364Z,22.33
2022-08-24T09:52:14.098Z,25.40
2022-08-24T09:55:53.538Z,27.60
2022-08-24T09:59:17.095Z,28.00
2022-08-24T10:02:47.342Z,26.25
2022-08-24T10:06:13.393Z,23.00
2022-08-24T10:09:50.331Z,22.40
2022-08-24T10:13:04.692Z,25.00
2022-08-24T10:16:18.823Z,25.00
2022-08-24T10:19:49.136Z,24.50
2022-08-24T10:23:11.549Z,24.40
2022-08-24T10:26:23.161Z,23.00
2022-08-24T10:29:43.982Z,22.60
2022-08-24T10:33:03.171Z,23.00
2022-08-24T10:36:25.589Z,24.60
2022-08-24T10:40:09.536Z,27.00
2022-08-24T10:43:46.831Z,28.50
2022-08-24T10:46:57.964Z,21.33
2022-08-24T10:50:34.860Z,23.50
2022-08-24T10:53:38.731Z,21.25
2022-08-24T10:56:53.135Z,23.50
2022-08-24T11:00:07.657Z,20.00
2022-08-24T11:03:15.345Z,21.00
2022-08-24T11:06:20.313Z,19.00
2022-08-24T11:09:23.641Z,22.75
2022-08-24T11:12:33.032Z,20.00
2022-08-24T11:15:49.704Z,17.00
2022-08-24T11:18:55.147Z,20.00
2022-08-24T11:22:04.236Z,19.80
2022-08-24T11:25:15.079Z,18.00
2022-08-24T11:28:24.322Z,21.50
2022-08-24T11:31:36.003Z,20.20
2022-08-24T11:34:40.135Z,21.00
2022-08-24T11:37:43.853Z,21.60
2022-08-24T11:40:54.316Z,20.00
2022-08-24T11:44:03.721Z,21.00
2022-08-24T11:47:28.829Z,23.00
2022-08-24T11:50:40.210Z,23.20
2022-08-24T11:54:00.305Z,21.75
2022-08-24T11:57:12.387Z,22.50
2022-08-24T12:00:19.070Z,21.60
2022-08-24T12:03:44.048Z,21.00
2022-08-24T12:06:59.429Z,22.00
2022-08-24T12:10:19.190Z,25.60
2022-08-24T12:13:33.347Z,22.00
2022-08-24T12:16:44.814Z,22.50
2022-08-24T12:19:53.044Z,21.60
2022-08-24T12:23:01.832Z,23.00
2022-08-24T12:26:11.108Z,20.40
2022-08-24T12:29:20.228Z,24.00
2022-08-24T12:32:28.097Z,24.00
2022-08-24T12:35:39.405Z,23.00
2022-08-24T12:38:49.295Z,24.00
2022-08-24T12:42:05.853Z,22.20
2022-08-24T12:45:13.085Z,23.00
2022-08-24T12:48:23.256Z,23.80
2022-08-24T12:51:48.653Z,26.00
2022-08-24T12:55:19.284Z,27.50
2022-08-24T12:58:54.480Z,28.20
2022-08-24T13:02:02.979Z,22.75
2022-08-24T13:05:14.340Z,23.00
2022-08-24T13:08:33.314Z,24.00
2022-08-24T13:11:38.040Z,24.00
2022-08-24T13:14:50.990Z,25.40
2022-08-24T13:18:03.228Z,27.00
2022-08-24T13:21:17.675Z,23.60
2022-08-24T13:25:08.527Z,28.80
2022-08-24T13:28:34.282Z,21.00
2022-08-24T13:31:42.710Z,25.00
2022-08-24T13:34:48.427Z,23.60
2022-08-24T13:38:31.828Z,25.50
2022-08-24T13:41:55.263Z,24.33
2022-08-24T13:45:17.077Z,29.50
2022-08-24T13:48:30.411Z,24.20
2022-08-24T13:51:42.631Z,29.00
2022-08-24T13:55:02.807Z,23.50
2022-08-24T13:58:20.466Z,21.00
2022-08-24T14:01:35.034Z,25.40
2022-08-24T14:04:46.445Z,24.20
2022-08-24T14:07:58.085Z,23.00
2022-08-24T14:11:10.039Z,18.60
2022-08-24T14:14:23.214Z,25.60
2022-08-24T14:17:56.083Z,22.40
2022-08-24T14:21:09.129Z,23.00
2022-08-24T14:24:26.727Z,21.40
2022-08-24T14:27:41.117Z,19.80
2022-08-24T14:30:50.341Z,24.00
2022-08-24T14:34:16.340Z,25.75
2022-08-24T14:37:24.556Z,27.00
2022-08-24T14:40:37.159Z,24.40
2022-08-24T14:44:08.480Z,26.00
2022-08-24T14:47:24.206Z,29.00
2022-08-24T14:50:38.802Z,26.60
2022-08-24T14:53:56.548Z,21.20
2022-08-24T14:57:15.289Z,26.40
2022-08-24T15:00:21.972Z,25.80
2022-08-24T15:03:43.736Z,26.50
2022-08-24T15:06:50.697Z,26.40
2022-08-24T15:09:55.853Z,23.00
2022-08-24T15:13:04.086Z,23.00
2022-08-24T15:16:13.206Z,26.60
2022-08-24T15:19:27.635Z,28.00
2022-08-24T15:22:46.762Z,28.00
2022-08-24T15:25:56.614Z,26.00
2022-08-24T15:29:00.826Z,29.40
2022-08-24T15:32:08.452Z,29.80
2022-08-24T15:35:25.532Z,30.50
2022-08-24T15:38:34.592Z,24.00
2022-08-24T15:41:42.003Z,26.40
2022-08-24T15:44:49.582Z,27.00
2022-08-24T15:47:55.044Z,25.25
2022-08-24T15:50:59.497Z,27.40
2022-08-24T15:54:19.680Z,28.00
2022-08-24T15:57:30.674Z,28.60
2022-08-24T16:00:55.854Z,28.00
2022-08-24T16:04:00.793Z,25.00
2022-08-24T16:07:04.200Z,27.40
2022-08-24T16:10:12.980Z,27.00
2022-08-24T16:13:29.593Z,30.00
2022-08-24T16:16:39.318Z,27.25
2022-08-24T16:19:42.669Z,16.00
2022-08-24T16:22:56.578Z,12.50
2022-08-24T16:26:23.780Z,15.00
2022-08-24T16:29:50.311Z,13.33
2022-08-24T16:32:59.723Z,10.75
2022-08-24T16:36:05.944Z,12.00
2022-08-24T16:39:12.134Z,14.00
2022-08-24T16:42:23.162Z,11.00
2022-08-24T16:45:26.633Z,11.00
2022-08-24T16:48:29.978Z,11.20
2022-08-24T16:51:33.305Z,15.25
2022-08-24T16:54:36.634Z,14.60
2022-08-24T16:57:41.380Z,11.60
2022-08-24T17:00:45.996Z,10.20
2022-08-24T17:03:49.733Z,12.60
2022-08-24T17:06:55.562Z,14.00
2022-08-24T17:09:59.476Z,13.40
2022-08-24T17:13:04.176Z,12.60
2022-08-24T17:16:07.974Z,9.80
2022-08-24T17:19:14.798Z,14.00
2022-08-24T17:22:20.517Z,12.00
2022-08-24T17:25:24.252Z,11.75
2022-08-24T17:28:29.332Z,13.00
2022-08-24T17:31:33.882Z,14.20
2022-08-24T17:34:37.499Z,10.00
2022-08-24T17:37:41.306Z,12.80
2022-08-24T17:40:44.582Z,14.20
2022-08-24T17:43:49.272Z,15.00
2022-08-24T17:46:55.084Z,17.00
2022-08-24T17:50:00.808Z,11.20
2022-08-24T17:53:08.985Z,18.00
2022-08-24T17:56:14.283Z,15.00
2022-08-24T17:59:25.272Z,17.00
2022-08-24T18:02:28.627Z,18.00
2022-08-24T18:05:36.001Z,20.80
2022-08-24T18:08:39.638Z,16.50
2022-08-24T18:11:42.922Z,16.40
2022-08-24T18:14:47.555Z,23.00
2022-08-24T18:17:55.013Z,27.75
2022-08-24T18:20:58.408Z,18.00
2022-08-24T18:24:01.681Z,28.20
2022-08-24T18:27:10.320Z,25.00
2022-08-24T18:30:22.538Z,19.60
2022-08-24T18:33:28.705Z,15.50
2022-08-24T18:36:32.376Z,18.60
2022-08-24T18:39:36.276Z,22.40
2022-08-24T18:42:41.651Z,25.60
2022-08-24T18:45:46.503Z,12.60
2022-08-24T18:48:49.780Z,17.25
2022-08-24T18:51:53.193Z,13.75
2022-08-24T18:54:56.858Z,15.75
2022-08-24T18:58:00.296Z,23.25
2022-08-24T19:01:05.674Z,13.40
2022-08-24T19:04:13.940Z,19.40
2022-08-24T19:07:17.545Z,21.40
2022-08-24T19:10:24.910Z,24.00
2022-08-24T19:13:28.710Z,22.60
2022-08-24T19:16:33.437Z,19.40
2022-08-24T19:19:36.821Z,18.25
2022-08-24T19:22:41.012Z,24.50
2022-08-24T19:25:45.612Z,20.40
2022-08-24T19:28:48.968Z,14.00
2022-08-24T19:31:54.243Z,16.75
2022-08-24T19:34:59.766Z,9.00
2022-08-24T19:38:03.731Z,13.00
2022-08-24T19:41:11.596Z,9.80
2022-08-24T19:44:36.097Z,23.40
2022-08-24T19:47:41.854Z,17.40
2022-08-24T19:50:45.332Z,19.00
2022-08-24T19:53:48.935Z,20.00
2022-08-24T19:56:54.385Z,29.00
2022-08-24T20:00:00.198Z,31.33
2022-08-24T20:03:06.336Z,25.00
2022-08-24T20:06:12.809Z,37.60
2022-08-24T20:09:18.637Z,26.25
2022-08-24T20:12:23.881Z,28.50
2022-08-24T20:15:27.537Z,29.00
2022-08-24T20:18:35.118Z,36.00
2022-08-24T20:21:38.980Z,29.60
2022-08-24T20:24:42.664Z,28.40
2022-08-24T20:27:46.827Z,34.40
2022-08-24T20:30:50.100Z,34.00
2022-08-24T20:33:54.783Z,35.00
2022-08-24T20:36:58.627Z,34.40
2022-08-24T20:40:03.430Z,25.40
2022-08-24T20:43:07.483Z,23.50
2022-08-24T20:46:11.191Z,31.00
2022-08-24T20:49:17.658Z,20.00
2022-08-24T20:52:23.165Z,17.60
2022-08-24T20:55:26.792Z,21.25
2022-08-24T20:58:30.355Z,17.20
2022-08-24T21:01:34.847Z,15.80
2022-08-24T21:04:39.663Z,24.60
2022-08-24T21:07:49.432Z,25.00
2022-08-24T21:10:52.740Z,24.40
2022-08-24T21:13:56.051Z,17.40
2022-08-24T21:17:00.443Z,19.00
2022-08-24T21:20:06.135Z,22.40
2022-08-24T21:23:09.694Z,17.00
2022-08-24T21:26:16.307Z,26.40
2022-08-24T21:29:19.879Z,17.00
2022-08-24T21:32:40.324Z,15.40
2022-08-24T21:35:45.550Z,16.00
2022-08-24T21:38:52.147Z,16.20
2022-08-24T21:41:56.904Z,14.00
2022-08-24T21:45:00.270Z,16.75
2022-08-24T21:48:03.652Z,16.75
2022-08-24T21:51:08.524Z,16.00
2022-08-24T21:54:11.785Z,22.00
2022-08-24T21:57:15.462Z,16.67
2022-08-24T22:00:20.095Z,14.00
2022-08-24T22:03:23.662Z,15.50
2022-08-24T22:06:31.686Z,17.20
2022-08-24T22:09:35.402Z,16.00
2022-08-24T22:12:43.884Z,14.00
2022-08-24T22:15:47.589Z,17.40
2022-08-24T22:18:51.314Z,18.50
2022-08-24T22:21:56.241Z,14.00
2022-08-24T22:24:59.823Z,16.60
2022-08-24T22:28:03.118Z,19.00
2022-08-24T22:31:17.157Z,16.40
2022-08-24T22:34:21.429Z,16.00
2022-08-24T22:37:26.269Z,15.00
2022-08-24T22:40:29.656Z,14.60
2022-08-24T22:43:48.121Z,15.00
2022-08-24T22:46:56.717Z,15.80
2022-08-24T22:49:59.996Z,16.00
2022-08-24T22:53:05.153Z,14.50
2022-08-24T22:56:16.660Z,18.40
2022-08-24T22:59:22.100Z,14.60
2022-08-24T23:02:27.716Z,13.00
2022-08-24T23:05:30.941Z,11.50
2022-08-24T23:08:35.824Z,13.00
2022-08-24T23:11:39.807Z,11.20
2022-08-24T23:14:43.591Z,15.60
2022-08-24T23:17:46.943Z,15.40
2022-08-24T23:20:50.107Z,14.00
2022-08-24T23:23:55.290Z,14.50
2022-08-24T23:26:58.683Z,15.00
2022-08-24T23:30:02.042Z,15.00
2022-08-24T23:33:05.625Z,13.00
2022-08-24T23:36:10.742Z,19.00
2022-08-24T23:39:16.058Z,14.00
2022-08-24T23:42:19.755Z,14.00
2022-08-24T23:45:28.086Z,16.40
2022-08-24T23:48:33.005Z,11.50
2022-08-24T23:51:36.936Z,12.60
2022-08-24T23:54:41.657Z,16.00
2022-08-24T23:57:45.130Z,12.00
